Terminal Aerodrome Forecast
Issued by NWS Brownsville, TX

Home | Current Version | Previous Version | Text Only | Print | Product List | Glossary On
Versions: 1 2 3 4 5 6 7 8 9 10 11 12 13 14 15 16 17 18 19 20 21
000
FTUS44 KBRO 141100
TAFMFE
TAF
KMFE 141137Z 1412/1512 15005KT P6SM SKC
     FM141400 15010KT P6SM FEW040
     FM141600 13016G22KT P6SM SCT060
     FM150200 14011KT P6SM SKC=

USA.gov is the U.S. government's official web portal to all federal, state and local government web resources and services.